createdAt,value
2022-12-11T00:00:21.391Z,48
2022-12-11T00:01:21.387Z,57
2022-12-11T00:02:21.466Z,45
2022-12-11T00:03:21.466Z,49
2022-12-11T00:04:21.451Z,49
2022-12-11T00:05:21.441Z,48
2022-12-11T00:06:21.442Z,48
2022-12-11T00:07:21.424Z,52
2022-12-11T00:08:21.486Z,51
2022-12-11T00:09:21.374Z,54
2022-12-11T00:10:21.390Z,49
2022-12-11T00:11:21.396Z,50
2022-12-11T00:12:21.394Z,52
2022-12-11T00:13:21.390Z,53
2022-12-11T00:14:21.451Z,54
2022-12-11T00:15:21.406Z,55
2022-12-11T00:16:26.744Z,56
2022-12-11T00:17:21.387Z,56
2022-12-11T00:18:21.414Z,51
2022-12-11T00:19:21.380Z,53
2022-12-11T00:20:21.389Z,51
2022-12-11T00:21:21.378Z,49
2022-12-11T00:22:21.442Z,52
2022-12-11T00:23:21.398Z,51
2022-12-11T00:24:21.384Z,50
2022-12-11T00:25:21.385Z,54
2022-12-11T00:26:21.381Z,46
2022-12-11T00:27:21.377Z,47
2022-12-11T00:28:21.402Z,49
2022-12-11T00:29:21.445Z,63
2022-12-11T00:30:21.420Z,60
2022-12-11T00:31:21.473Z,58
2022-12-11T00:32:21.389Z,60
2022-12-11T00:33:21.422Z,69
2022-12-11T00:34:21.389Z,74
2022-12-11T00:35:21.371Z,68
2022-12-11T00:36:21.380Z,68
2022-12-11T00:37:21.612Z,65
2022-12-11T00:38:21.434Z,63
2022-12-11T00:39:21.377Z,61
2022-12-11T00:40:21.372Z,58
2022-12-11T00:41:21.370Z,59
2022-12-11T00:42:21.378Z,60
2022-12-11T00:43:21.387Z,57
2022-12-11T00:44:21.384Z,57
2022-12-11T00:45:21.463Z,57
2022-12-11T00:46:21.507Z,56
2022-12-11T00:47:21.464Z,56
2022-12-11T00:48:21.490Z,55
2022-12-11T00:49:21.407Z,57
2022-12-11T00:50:21.439Z,61
2022-12-11T00:51:21.424Z,55
2022-12-11T00:52:21.382Z,52
2022-12-11T00:53:21.461Z,53
2022-12-11T00:54:21.423Z,54
2022-12-11T00:55:21.381Z,56
2022-12-11T00:56:21.385Z,56
2022-12-11T00:57:21.420Z,49
2022-12-11T00:58:21.405Z,53
2022-12-11T00:59:21.445Z,59
2022-12-11T01:00:21.383Z,55
2022-12-11T01:01:21.544Z,53
2022-12-11T01:02:21.499Z,56
2022-12-11T01:03:21.429Z,54
2022-12-11T01:04:21.684Z,53
2022-12-11T01:05:21.807Z,52
2022-12-11T01:06:21.756Z,55
2022-12-11T01:07:21.387Z,52
2022-12-11T01:08:21.512Z,52
2022-12-11T01:09:21.429Z,53
2022-12-11T01:10:21.471Z,59
2022-12-11T01:11:21.391Z,58
2022-12-11T01:12:21.390Z,60
2022-12-11T01:13:21.497Z,58
2022-12-11T01:14:21.370Z,59
2022-12-11T01:15:21.394Z,59
2022-12-11T01:16:21.452Z,61
2022-12-11T01:17:21.418Z,60
2022-12-11T01:18:21.419Z,60
2022-12-11T01:19:21.382Z,68
2022-12-11T01:20:21.393Z,60
2022-12-11T01:21:21.460Z,64
2022-12-11T01:22:21.389Z,65
2022-12-11T01:23:21.396Z,67
2022-12-11T01:24:21.441Z,67
2022-12-11T01:25:21.416Z,66
2022-12-11T01:26:21.379Z,70
2022-12-11T01:27:21.393Z,63
2022-12-11T01:28:21.401Z,71
2022-12-11T01:29:21.377Z,65
2022-12-11T01:30:21.376Z,67
2022-12-11T01:31:21.426Z,66
2022-12-11T01:32:21.597Z,67
2022-12-11T01:33:21.571Z,68
2022-12-11T01:34:21.576Z,66
2022-12-11T01:35:21.560Z,70
2022-12-11T01:36:21.701Z,69
2022-12-11T01:37:21.382Z,70
2022-12-11T01:38:21.389Z,69
2022-12-11T01:39:21.389Z,70
2022-12-11T01:40:21.426Z,71
2022-12-11T01:41:21.419Z,64
2022-12-11T01:42:21.398Z,68
2022-12-11T01:43:21.448Z,65
2022-12-11T01:44:21.368Z,64
2022-12-11T01:45:21.368Z,68
2022-12-11T01:46:21.457Z,64
2022-12-11T01:47:21.404Z,69
2022-12-11T01:48:21.465Z,68
2022-12-11T01:49:21.412Z,67
2022-12-11T01:50:21.378Z,65
2022-12-11T01:51:21.379Z,66
2022-12-11T01:52:21.392Z,61
2022-12-11T01:53:21.397Z,61
2022-12-11T01:54:21.414Z,62
2022-12-11T01:55:21.373Z,66
2022-12-11T01:56:21.418Z,61
2022-12-11T01:57:21.415Z,61
2022-12-11T01:58:21.484Z,61
2022-12-11T01:59:21.365Z,62
2022-12-11T02:00:21.363Z,56
2022-12-11T02:01:21.412Z,54
2022-12-11T02:02:21.476Z,56
2022-12-11T02:03:21.427Z,62
2022-12-11T02:04:21.415Z,58
2022-12-11T02:05:21.401Z,50
2022-12-11T02:06:21.373Z,59
2022-12-11T02:07:21.363Z,55
2022-12-11T02:08:21.468Z,54
2022-12-11T02:09:21.366Z,57
2022-12-11T02:10:21.383Z,64
2022-12-11T02:11:21.373Z,61
2022-12-11T02:12:21.420Z,59
2022-12-11T02:13:21.397Z,58
2022-12-11T02:14:21.380Z,60
2022-12-11T02:15:21.365Z,56
2022-12-11T02:16:21.534Z,57
2022-12-11T02:17:21.364Z,52
2022-12-11T02:18:21.434Z,58
2022-12-11T02:19:21.427Z,50
2022-12-11T02:20:21.421Z,51
2022-12-11T02:21:21.380Z,55
2022-12-11T02:22:21.375Z,52
2022-12-11T02:23:21.382Z,50
2022-12-11T02:24:21.358Z,56
2022-12-11T02:25:21.375Z,51
2022-12-11T02:26:21.365Z,55
2022-12-11T02:27:21.461Z,56
2022-12-11T02:28:21.419Z,57
2022-12-11T02:29:21.369Z,55
2022-12-11T02:30:21.421Z,50
2022-12-11T02:31:21.397Z,50
2022-12-11T02:32:21.368Z,54
2022-12-11T02:33:21.404Z,47
2022-12-11T02:34:21.371Z,54
2022-12-11T02:35:21.415Z,59
2022-12-11T02:36:21.401Z,54
2022-12-11T02:37:21.367Z,64
2022-12-11T02:38:21.396Z,58
2022-12-11T02:39:21.361Z,61
2022-12-11T02:40:21.374Z,59
2022-12-11T02:41:21.444Z,53
2022-12-11T02:42:21.419Z,52
2022-12-11T02:43:21.434Z,51
2022-12-11T02:44:21.426Z,56
2022-12-11T02:45:21.389Z,50
2022-12-11T02:46:21.456Z,55
2022-12-11T02:47:21.378Z,53
2022-12-11T02:48:21.409Z,51
2022-12-11T02:49:21.447Z,52
2022-12-11T02:50:21.366Z,54
2022-12-11T02:51:21.432Z,56
2022-12-11T02:52:21.414Z,51
2022-12-11T02:53:21.386Z,55
2022-12-11T02:54:21.354Z,44
2022-12-11T02:55:21.361Z,47
2022-12-11T02:56:21.368Z,50
2022-12-11T02:57:21.366Z,48
2022-12-11T02:58:21.394Z,50
2022-12-11T02:59:21.441Z,48
2022-12-11T03:00:21.376Z,48
2022-12-11T03:01:21.410Z,59
2022-12-11T03:02:21.380Z,54
2022-12-11T03:03:21.405Z,55
2022-12-11T03:04:21.367Z,48
2022-12-11T03:05:21.371Z,50
2022-12-11T03:06:21.376Z,51
2022-12-11T03:07:21.396Z,49
2022-12-11T03:08:21.450Z,56
2022-12-11T03:09:21.368Z,50
2022-12-11T03:10:21.360Z,50
2022-12-11T03:11:21.446Z,56
2022-12-11T03:12:21.348Z,48
2022-12-11T03:13:21.460Z,55
2022-12-11T03:14:21.402Z,51
2022-12-11T03:15:21.401Z,51
2022-12-11T03:16:21.420Z,55
2022-12-11T03:17:21.362Z,51
2022-12-11T03:18:21.403Z,49
2022-12-11T03:19:21.372Z,52
2022-12-11T03:20:21.403Z,52
2022-12-11T03:21:21.364Z,50
2022-12-11T03:22:21.446Z,47
2022-12-11T03:23:21.426Z,51
2022-12-11T03:24:21.398Z,45
2022-12-11T03:25:21.408Z,53
2022-12-11T03:26:21.370Z,51
2022-12-11T03:27:21.361Z,53
2022-12-11T03:28:21.374Z,56
2022-12-11T03:29:21.365Z,52
2022-12-11T03:30:21.430Z,52
2022-12-11T03:31:21.401Z,54
2022-12-11T03:32:21.363Z,52
2022-12-11T03:33:21.398Z,53
2022-12-11T03:34:21.366Z,54
2022-12-11T03:35:21.377Z,56
2022-12-11T03:36:21.408Z,51
2022-12-11T03:37:21.370Z,48
2022-12-11T03:38:21.436Z,52
2022-12-11T03:39:21.405Z,52
2022-12-11T03:40:21.361Z,48
2022-12-11T03:41:21.363Z,56
2022-12-11T03:42:21.365Z,55
2022-12-11T03:43:21.371Z,56
2022-12-11T03:44:21.421Z,55
2022-12-11T03:45:21.367Z,52
2022-12-11T03:46:21.448Z,55
2022-12-11T03:47:21.412Z,56
2022-12-11T03:48:21.488Z,51
2022-12-11T03:49:21.364Z,53
2022-12-11T03:50:21.350Z,60
2022-12-11T03:51:21.397Z,58
2022-12-11T03:52:21.364Z,53
2022-12-11T03:53:21.388Z,56
2022-12-11T03:54:21.403Z,61
2022-12-11T03:55:21.362Z,57
2022-12-11T03:56:21.372Z,48
2022-12-11T03:57:21.362Z,57
2022-12-11T03:58:21.381Z,54
2022-12-11T03:59:21.356Z,59
2022-12-11T04:00:21.363Z,63
2022-12-11T04:01:21.482Z,68
2022-12-11T04:02:21.410Z,60
2022-12-11T04:03:21.402Z,59
2022-12-11T04:04:21.441Z,51
2022-12-11T04:05:21.369Z,58
2022-12-11T04:06:21.430Z,55
2022-12-11T04:07:21.357Z,56
2022-12-11T04:08:21.445Z,63
2022-12-11T04:09:21.408Z,58
2022-12-11T04:10:21.413Z,59
2022-12-11T04:11:21.394Z,60
2022-12-11T04:12:21.367Z,54
2022-12-11T04:13:21.388Z,58
2022-12-11T04:14:21.352Z,54
2022-12-11T04:15:21.357Z,57
2022-12-11T04:16:21.401Z,56
2022-12-11T04:17:21.396Z,54
2022-12-11T04:18:21.449Z,62
2022-12-11T04:19:21.355Z,56
2022-12-11T04:20:21.372Z,57
2022-12-11T04:21:21.366Z,59
2022-12-11T04:22:21.386Z,61
2022-12-11T04:23:21.379Z,70
2022-12-11T04:24:21.352Z,60
2022-12-11T04:25:21.404Z,53
2022-12-11T04:26:21.401Z,55
2022-12-11T04:27:21.545Z,54
2022-12-11T04:28:21.369Z,58
2022-12-11T04:29:21.357Z,60
2022-12-11T04:30:21.383Z,51
2022-12-11T04:31:21.552Z,57
2022-12-11T04:32:21.403Z,49
2022-12-11T04:33:21.434Z,59
2022-12-11T04:34:21.387Z,62
2022-12-11T04:35:21.356Z,58
2022-12-11T04:36:21.366Z,61
2022-12-11T04:37:21.368Z,54
2022-12-11T04:38:21.376Z,56
2022-12-11T04:39:21.353Z,64
2022-12-11T04:40:21.347Z,53
2022-12-11T04:41:21.425Z,54
2022-12-11T04:42:21.472Z,53
2022-12-11T04:43:21.379Z,52
2022-12-11T04:44:21.354Z,55
2022-12-11T04:45:21.352Z,64
2022-12-11T04:46:21.447Z,59
2022-12-11T04:47:21.365Z,57
2022-12-11T04:48:21.411Z,67
2022-12-11T04:49:21.387Z,57
2022-12-11T04:50:21.354Z,57
2022-12-11T04:51:21.349Z,57
2022-12-11T04:52:21.362Z,59
2022-12-11T04:53:21.541Z,52
2022-12-11T04:54:21.355Z,53
2022-12-11T04:55:21.350Z,64
2022-12-11T04:56:21.396Z,53
2022-12-11T04:57:21.392Z,65
2022-12-11T04:58:21.365Z,55
2022-12-11T04:59:21.345Z,62
2022-12-11T05:00:21.353Z,57
2022-12-11T05:01:21.433Z,57
2022-12-11T05:02:21.421Z,59
2022-12-11T05:03:21.390Z,55
2022-12-11T05:04:21.399Z,55
2022-12-11T05:05:21.408Z,55
2022-12-11T05:06:21.350Z,55
2022-12-11T05:07:21.392Z,58
2022-12-11T05:08:21.569Z,59
2022-12-11T05:09:21.351Z,57
2022-12-11T05:10:21.355Z,78
2022-12-11T05:11:21.364Z,69
2022-12-11T05:12:21.416Z,50
2022-12-11T05:13:21.408Z,62
2022-12-11T05:14:21.349Z,56
2022-12-11T05:15:21.401Z,53
2022-12-11T05:16:21.402Z,60
2022-12-11T05:17:21.367Z,61
2022-12-11T05:18:21.389Z,62
2022-12-11T05:19:21.351Z,59
2022-12-11T05:20:21.409Z,56
2022-12-11T05:21:21.386Z,60
2022-12-11T05:22:21.455Z,64
2022-12-11T05:23:21.357Z,56
2022-12-11T05:24:21.364Z,59
2022-12-11T05:25:21.344Z,53
2022-12-11T05:26:21.415Z,55
2022-12-11T05:27:21.345Z,62
2022-12-11T05:28:21.424Z,60
2022-12-11T05:29:21.392Z,52
2022-12-11T05:30:21.345Z,58
2022-12-11T05:31:21.449Z,67
2022-12-11T05:32:21.352Z,56
2022-12-11T05:33:21.379Z,58
2022-12-11T05:34:21.363Z,56
2022-12-11T05:35:21.345Z,58
2022-12-11T05:36:21.395Z,67
2022-12-11T05:37:21.349Z,61
2022-12-11T05:38:21.373Z,69
2022-12-11T05:39:21.345Z,66
2022-12-11T05:40:21.417Z,63
2022-12-11T05:41:21.347Z,64
2022-12-11T05:42:25.510Z,61
2022-12-11T05:43:21.416Z,65
2022-12-11T05:44:21.472Z,71
2022-12-11T05:45:21.347Z,57
2022-12-11T05:46:21.444Z,53
2022-12-11T05:47:21.342Z,67
2022-12-11T05:48:21.383Z,64
2022-12-11T05:49:25.919Z,66
2022-12-11T05:50:21.338Z,73
2022-12-11T05:51:21.430Z,65
2022-12-11T05:52:21.390Z,58
2022-12-11T05:53:21.451Z,66
2022-12-11T05:54:21.385Z,69
2022-12-11T05:55:21.368Z,67
2022-12-11T05:56:21.360Z,65
2022-12-11T05:57:21.339Z,65
2022-12-11T05:58:21.373Z,54
2022-12-11T05:59:21.401Z,66
2022-12-11T06:00:21.395Z,60
2022-12-11T06:01:21.355Z,57
2022-12-11T06:02:21.489Z,62
2022-12-11T06:03:21.550Z,63
2022-12-11T06:04:21.341Z,66
2022-12-11T06:05:21.409Z,60
2022-12-11T06:06:21.355Z,63
2022-12-11T06:07:21.393Z,59
2022-12-11T06:08:21.436Z,56
2022-12-11T06:09:21.346Z,64
2022-12-11T06:10:21.350Z,70
2022-12-11T06:11:24.122Z,59
2022-12-11T06:12:21.350Z,63
2022-12-11T06:13:21.356Z,54
2022-12-11T06:14:21.341Z,73
2022-12-11T06:15:21.384Z,72
2022-12-11T06:16:21.422Z,62
2022-12-11T06:17:21.386Z,71
2022-12-11T06:18:21.389Z,75
2022-12-11T06:19:21.399Z,69
2022-12-11T06:20:21.342Z,72
2022-12-11T06:21:21.346Z,80
2022-12-11T06:22:21.420Z,78
2022-12-11T06:23:21.409Z,63
2022-12-11T06:24:21.338Z,76
2022-12-11T06:25:21.339Z,73
2022-12-11T06:26:21.396Z,75
2022-12-11T06:27:21.347Z,78
2022-12-11T06:28:21.373Z,76
2022-12-11T06:29:21.352Z,77
2022-12-11T06:30:21.407Z,84
2022-12-11T06:31:21.517Z,80
2022-12-11T06:32:21.336Z,70
2022-12-11T06:33:21.437Z,86
2022-12-11T06:34:21.463Z,77
2022-12-11T06:35:21.333Z,74
2022-12-11T06:36:21.341Z,75
2022-12-11T06:37:21.364Z,71
2022-12-11T06:38:21.413Z,63
2022-12-11T06:39:21.390Z,58
2022-12-11T06:40:21.477Z,81
2022-12-11T06:41:21.497Z,74
2022-12-11T06:42:21.354Z,72
2022-12-11T06:43:21.404Z,76
2022-12-11T06:44:21.344Z,76
2022-12-11T06:45:21.344Z,65
2022-12-11T06:46:21.454Z,72
2022-12-11T06:47:21.395Z,73
2022-12-11T06:48:21.390Z,72
2022-12-11T06:50:21.359Z,77
2022-12-11T06:51:21.337Z,68
2022-12-11T06:52:21.351Z,77
2022-12-11T06:53:21.372Z,73
2022-12-11T06:54:21.388Z,75
2022-12-11T06:55:21.341Z,73
2022-12-11T06:56:21.441Z,75
2022-12-11T06:57:21.389Z,70
2022-12-11T06:58:21.442Z,69
2022-12-11T06:59:21.345Z,78
2022-12-11T07:00:21.340Z,80
2022-12-11T07:01:21.547Z,71
2022-12-11T07:02:21.507Z,80
2022-12-11T07:03:21.385Z,80
2022-12-11T07:04:21.348Z,83
2022-12-11T07:05:21.354Z,85
2022-12-11T07:06:21.370Z,75
2022-12-11T07:07:21.351Z,85
2022-12-11T07:08:21.451Z,88
2022-12-11T07:09:21.393Z,82
2022-12-11T07:10:21.382Z,76
2022-12-11T07:11:21.372Z,98
2022-12-11T07:12:21.406Z,84
2022-12-11T07:13:21.379Z,68
2022-12-11T07:14:21.330Z,65
2022-12-11T07:15:21.392Z,82
2022-12-11T07:16:21.409Z,72
2022-12-11T07:17:21.393Z,87
2022-12-11T07:18:21.431Z,68
2022-12-11T07:19:21.380Z,92
2022-12-11T07:20:21.344Z,85
2022-12-11T07:21:21.351Z,84
2022-12-11T07:22:21.346Z,72
2022-12-11T07:23:21.349Z,77
2022-12-11T07:24:21.329Z,74
2022-12-11T07:25:21.402Z,82
2022-12-11T07:26:21.389Z,91
2022-12-11T07:27:21.345Z,84
2022-12-11T07:28:21.379Z,77
2022-12-11T07:29:21.395Z,89
2022-12-11T07:30:21.327Z,79
2022-12-11T07:31:21.427Z,83
2022-12-11T07:32:21.480Z,80
2022-12-11T07:33:21.769Z,84
2022-12-11T07:34:21.323Z,82
2022-12-11T07:35:21.329Z,86
2022-12-11T07:36:21.343Z,82
2022-12-11T07:37:21.338Z,79
2022-12-11T07:38:21.361Z,71
2022-12-11T07:39:21.339Z,89
2022-12-11T07:40:21.411Z,90
2022-12-11T07:41:21.384Z,80
2022-12-11T07:42:21.341Z,84
2022-12-11T07:43:21.443Z,83
2022-12-11T07:44:21.329Z,87
2022-12-11T07:45:21.333Z,90
2022-12-11T07:46:21.407Z,90
2022-12-11T07:47:21.349Z,82
2022-12-11T07:48:21.426Z,79
2022-12-11T07:49:21.439Z,80
2022-12-11T07:50:21.527Z,79
2022-12-11T07:51:21.329Z,86
2022-12-11T07:52:21.335Z,82
2022-12-11T07:53:21.349Z,81
2022-12-11T07:54:21.370Z,72
2022-12-11T07:55:21.333Z,74
2022-12-11T07:56:21.392Z,76
2022-12-11T07:57:21.365Z,84
2022-12-11T07:58:21.417Z,77
2022-12-11T07:59:21.428Z,76
2022-12-11T08:00:21.348Z,69
2022-12-11T08:01:21.457Z,81
2022-12-11T08:02:21.461Z,74
2022-12-11T08:03:21.389Z,64
2022-12-11T08:04:21.369Z,63
2022-12-11T08:05:21.373Z,69
2022-12-11T08:06:21.339Z,70
2022-12-11T08:07:21.339Z,68
2022-12-11T08:08:21.435Z,67
2022-12-11T08:09:21.549Z,79
2022-12-11T08:10:21.331Z,69
2022-12-11T08:11:21.327Z,75
2022-12-11T08:12:21.373Z,76
2022-12-11T08:13:21.346Z,66
2022-12-11T08:14:21.334Z,85
2022-12-11T08:15:21.339Z,86
2022-12-11T08:16:21.479Z,83
2022-12-11T08:17:25.852Z,72
2022-12-11T08:18:21.387Z,73
2022-12-11T08:19:21.356Z,73
2022-12-11T08:20:21.380Z,70
2022-12-11T08:21:21.363Z,71
2022-12-11T08:22:21.412Z,71
2022-12-11T08:23:21.408Z,77
2022-12-11T08:24:21.353Z,76
2022-12-11T08:25:21.406Z,75
2022-12-11T08:26:21.369Z,80
2022-12-11T08:27:21.403Z,74
2022-12-11T08:28:21.394Z,58
2022-12-11T08:29:21.421Z,66
2022-12-11T08:30:21.486Z,80
2022-12-11T08:31:21.406Z,72
2022-12-11T08:32:21.335Z,79
2022-12-11T08:33:21.376Z,71
2022-12-11T08:34:21.332Z,74
2022-12-11T08:35:21.375Z,74
2022-12-11T08:36:21.370Z,69
2022-12-11T08:37:21.318Z,77
2022-12-11T08:38:25.452Z,69
2022-12-11T08:39:21.329Z,77
2022-12-11T08:40:21.420Z,67
2022-12-11T08:41:21.372Z,66
2022-12-11T08:42:21.324Z,76
2022-12-11T08:43:21.404Z,75
2022-12-11T08:44:21.568Z,77
2022-12-11T08:45:21.328Z,76
2022-12-11T08:46:21.379Z,80
2022-12-11T08:47:21.343Z,71
2022-12-11T08:48:21.366Z,80
2022-12-11T08:49:21.336Z,79
2022-12-11T08:50:21.345Z,69
2022-12-11T08:51:21.373Z,92
2022-12-11T08:52:21.419Z,85
2022-12-11T08:53:21.340Z,93
2022-12-11T08:54:21.321Z,80
2022-12-11T08:55:21.328Z,75
2022-12-11T08:56:21.331Z,76
2022-12-11T08:57:21.335Z,77
2022-12-11T08:58:21.348Z,83
2022-12-11T08:59:21.359Z,91
2022-12-11T09:00:21.345Z,81
2022-12-11T09:01:21.467Z,74
2022-12-11T09:02:21.438Z,73
2022-12-11T09:03:21.425Z,77
2022-12-11T09:04:21.502Z,75
2022-12-11T09:05:21.331Z,76
2022-12-11T09:06:21.366Z,70
2022-12-11T09:07:21.447Z,70
2022-12-11T09:08:21.526Z,71
2022-12-11T09:09:21.342Z,75
2022-12-11T09:10:21.449Z,72
2022-12-11T09:11:21.364Z,71
2022-12-11T09:12:21.339Z,75
2022-12-11T09:13:21.360Z,66
2022-12-11T09:14:21.364Z,72
2022-12-11T09:15:21.371Z,66
2022-12-11T09:16:21.477Z,69
2022-12-11T09:17:21.424Z,75
2022-12-11T09:18:21.363Z,71
2022-12-11T09:19:21.337Z,74
2022-12-11T09:20:21.392Z,73
2022-12-11T09:21:21.327Z,81
2022-12-11T09:22:21.433Z,67
2022-12-11T09:23:21.570Z,72
2022-12-11T09:24:21.613Z,77
2022-12-11T09:25:21.495Z,74
2022-12-11T09:26:21.663Z,78
2022-12-11T09:27:21.411Z,71
2022-12-11T09:28:21.377Z,76
2022-12-11T09:29:21.377Z,79
2022-12-11T09:30:21.370Z,77
2022-12-11T09:31:21.364Z,78
2022-12-11T09:32:21.403Z,79
2022-12-11T09:33:21.424Z,91
2022-12-11T09:34:27.435Z,81
2022-12-11T09:35:21.310Z,69
2022-12-11T09:36:21.375Z,76
2022-12-11T09:37:21.379Z,82
2022-12-11T09:38:21.398Z,71
2022-12-11T09:39:21.372Z,80
2022-12-11T09:40:21.325Z,81
2022-12-11T09:41:21.359Z,80
2022-12-11T09:42:21.319Z,86
2022-12-11T09:43:21.430Z,83
2022-12-11T09:44:21.415Z,86
2022-12-11T09:45:21.365Z,82
2022-12-11T09:46:24.570Z,87
2022-12-11T09:47:21.333Z,82
2022-12-11T09:48:21.394Z,83
2022-12-11T09:49:21.329Z,80
2022-12-11T09:50:21.314Z,85
2022-12-11T09:51:21.331Z,78
2022-12-11T09:52:21.346Z,80
2022-12-11T09:53:21.402Z,76
2022-12-11T09:54:21.367Z,90
2022-12-11T09:55:21.311Z,89
2022-12-11T09:56:21.374Z,79
2022-12-11T09:57:21.321Z,79
2022-12-11T09:58:21.358Z,83
2022-12-11T09:59:21.387Z,80
2022-12-11T10:00:21.426Z,78
2022-12-11T10:01:21.422Z,83
2022-12-11T10:02:21.475Z,77
2022-12-11T10:03:21.385Z,72
2022-12-11T10:04:21.322Z,77
2022-12-11T10:05:21.327Z,73
2022-12-11T10:06:21.316Z,81
2022-12-11T10:07:21.336Z,67
2022-12-11T10:08:21.432Z,79
2022-12-11T10:09:21.362Z,80
2022-12-11T10:10:21.388Z,75
2022-12-11T10:11:21.348Z,67
2022-12-11T10:12:21.319Z,112
2022-12-11T10:13:21.336Z,69
2022-12-11T10:14:21.324Z,73
2022-12-11T10:15:21.310Z,78
2022-12-11T10:16:21.365Z,64
2022-12-11T10:17:21.357Z,68
2022-12-11T10:18:21.354Z,67
2022-12-11T10:19:21.350Z,64
2022-12-11T10:20:21.336Z,58
2022-12-11T10:21:21.377Z,60
2022-12-11T10:22:21.313Z,61
2022-12-11T10:23:21.350Z,60
2022-12-11T10:24:42.198Z,63
2022-12-11T10:25:21.390Z,57
2022-12-11T10:26:21.310Z,60
2022-12-11T10:27:21.342Z,64
2022-12-11T10:28:21.334Z,66
2022-12-11T10:29:21.314Z,62
2022-12-11T10:30:21.366Z,69
2022-12-11T10:31:21.452Z,62
2022-12-11T10:32:21.369Z,65
2022-12-11T10:33:21.437Z,61
2022-12-11T10:34:21.334Z,59
2022-12-11T10:35:21.466Z,61
2022-12-11T10:36:21.422Z,65
2022-12-11T10:37:21.337Z,63
2022-12-11T10:38:21.349Z,54
2022-12-11T10:39:21.348Z,58
2022-12-11T10:40:21.365Z,68
2022-12-11T10:41:21.380Z,55
2022-12-11T10:42:21.314Z,61
2022-12-11T10:43:21.331Z,52
2022-12-11T10:44:21.311Z,53
2022-12-11T10:45:21.342Z,57
2022-12-11T10:46:21.443Z,53
2022-12-11T10:47:21.314Z,60
2022-12-11T10:48:21.395Z,51
2022-12-11T10:49:21.349Z,60
2022-12-11T10:50:21.316Z,62
2022-12-11T10:51:21.315Z,58
2022-12-11T10:52:21.330Z,56
2022-12-11T10:53:21.435Z,58
2022-12-11T10:54:21.313Z,54
2022-12-11T10:55:21.307Z,60
2022-12-11T10:56:21.368Z,57
2022-12-11T10:57:21.299Z,56
2022-12-11T10:58:21.347Z,58
2022-12-11T10:59:24.104Z,53
2022-12-11T11:00:21.326Z,53
2022-12-11T11:01:21.358Z,57
2022-12-11T11:02:21.373Z,53
2022-12-11T11:03:21.392Z,50
2022-12-11T11:04:21.358Z,58
2022-12-11T11:05:21.346Z,66
2022-12-11T11:06:21.368Z,68
2022-12-11T11:07:21.300Z,62
2022-12-11T11:08:21.542Z,64
2022-12-11T11:09:21.298Z,63
2022-12-11T11:10:21.308Z,67
2022-12-11T11:11:21.397Z,67
2022-12-11T11:12:21.361Z,64
2022-12-11T11:13:21.332Z,84
2022-12-11T11:14:21.315Z,61
2022-12-11T11:15:21.311Z,62
2022-12-11T11:16:21.405Z,60
2022-12-11T11:17:21.363Z,61
2022-12-11T11:18:21.326Z,60
2022-12-11T11:19:21.365Z,55
2022-12-11T11:20:21.340Z,56
2022-12-11T11:21:21.305Z,57
2022-12-11T11:22:21.308Z,56
2022-12-11T11:23:21.337Z,48
2022-12-11T11:24:21.304Z,52
2022-12-11T11:25:21.321Z,52
2022-12-11T11:26:21.319Z,53
2022-12-11T11:27:21.355Z,52
2022-12-11T11:28:21.322Z,52
2022-12-11T11:29:21.307Z,50
2022-12-11T11:30:21.313Z,50
2022-12-11T11:31:21.417Z,50
2022-12-11T11:32:21.309Z,50
2022-12-11T11:33:21.337Z,49
2022-12-11T11:34:21.379Z,47
2022-12-11T11:35:21.350Z,53
2022-12-11T11:36:21.333Z,45
2022-12-11T11:37:21.316Z,54
2022-12-11T11:38:21.354Z,48
2022-12-11T11:39:21.318Z,50
2022-12-11T11:40:21.315Z,50
2022-12-11T11:41:21.317Z,49
2022-12-11T11:42:21.371Z,51
2022-12-11T11:43:21.399Z,43
2022-12-11T11:44:21.316Z,52
2022-12-11T11:45:21.355Z,45
2022-12-11T11:46:21.413Z,46
2022-12-11T11:47:21.305Z,43
2022-12-11T11:48:21.340Z,47
2022-12-11T11:49:21.300Z,49
2022-12-11T11:50:21.360Z,47
2022-12-11T11:51:21.345Z,47
2022-12-11T11:52:21.318Z,53
2022-12-11T11:53:21.341Z,52
2022-12-11T11:54:21.298Z,49
2022-12-11T11:55:22.670Z,53
2022-12-11T11:56:21.383Z,49
2022-12-11T11:57:21.303Z,48
2022-12-11T11:58:21.368Z,50
2022-12-11T11:59:21.353Z,48
2022-12-11T12:00:21.325Z,47
2022-12-11T12:01:21.325Z,46
2022-12-11T12:02:21.418Z,50
2022-12-11T12:03:21.331Z,50
2022-12-11T12:04:21.306Z,50
2022-12-11T12:05:21.305Z,45
2022-12-11T12:06:21.365Z,47
2022-12-11T12:07:21.339Z,44
2022-12-11T12:08:21.366Z,44
2022-12-11T12:09:21.333Z,48
2022-12-11T12:10:21.359Z,48
2022-12-11T12:11:21.310Z,50
2022-12-11T12:12:27.414Z,45
2022-12-11T12:13:48.101Z,49
2022-12-11T12:14:43.694Z,45
2022-12-11T12:15:21.296Z,47
2022-12-11T12:16:51.035Z,47
2022-12-11T12:17:21.316Z,49
2022-12-11T12:18:21.312Z,49
2022-12-11T12:19:21.311Z,51
2022-12-11T12:20:21.301Z,51
2022-12-11T12:21:21.338Z,52
2022-12-11T12:22:21.359Z,51
2022-12-11T12:23:21.314Z,59
2022-12-11T12:24:21.305Z,55
2022-12-11T12:25:21.300Z,60
2022-12-11T12:26:21.298Z,51
2022-12-11T12:27:50.115Z,46
2022-12-11T12:28:21.333Z,50
2022-12-11T12:29:21.348Z,49
2022-12-11T12:30:22.934Z,50
2022-12-11T12:31:21.359Z,48
2022-12-11T12:32:21.324Z,47
2022-12-11T12:33:21.323Z,48
2022-12-11T12:34:21.308Z,45
2022-12-11T12:35:21.366Z,48
2022-12-11T12:36:21.310Z,47
2022-12-11T12:37:21.363Z,45
2022-12-11T12:38:21.387Z,46
2022-12-11T12:39:21.306Z,46
2022-12-11T12:40:21.584Z,43
2022-12-11T12:41:21.604Z,44
2022-12-11T12:42:21.505Z,43
2022-12-11T12:43:21.619Z,41
2022-12-11T12:44:21.403Z,43
2022-12-11T12:45:21.421Z,43
2022-12-11T12:46:21.307Z,41
2022-12-11T12:47:21.301Z,44
2022-12-11T12:48:21.334Z,38
2022-12-11T12:49:21.294Z,42
2022-12-11T12:50:21.293Z,41
2022-12-11T12:51:21.310Z,38
2022-12-11T12:52:21.309Z,40
2022-12-11T12:53:21.394Z,41
2022-12-11T12:54:21.317Z,42
2022-12-11T12:55:21.321Z,41
2022-12-11T12:56:21.336Z,39
2022-12-11T12:57:21.320Z,35
2022-12-11T12:58:21.351Z,37
2022-12-11T12:59:21.333Z,37
2022-12-11T13:00:21.386Z,37
2022-12-11T13:01:21.460Z,36
2022-12-11T13:02:21.340Z,37
2022-12-11T13:03:21.364Z,36
2022-12-11T13:04:54.086Z,36
2022-12-11T13:05:21.299Z,39
2022-12-11T13:06:21.317Z,38
2022-12-11T13:07:21.316Z,36
2022-12-11T13:08:21.500Z,36
2022-12-11T13:09:21.357Z,32
2022-12-11T13:10:21.308Z,35
2022-12-11T13:11:21.344Z,37
2022-12-11T13:12:21.314Z,38
2022-12-11T13:13:21.317Z,36
2022-12-11T13:14:21.306Z,40
2022-12-11T13:15:21.315Z,38
2022-12-11T13:16:21.424Z,40
2022-12-11T13:17:21.334Z,39
2022-12-11T13:18:21.316Z,38
2022-12-11T13:19:21.299Z,37
2022-12-11T13:20:21.290Z,36
2022-12-11T13:21:21.301Z,42
2022-12-11T13:22:21.298Z,42
2022-12-11T13:23:21.325Z,40
2022-12-11T13:24:21.342Z,42
2022-12-11T13:25:21.408Z,40
2022-12-11T13:26:21.636Z,44
2022-12-11T13:27:21.699Z,39
2022-12-11T13:28:21.554Z,38
2022-12-11T13:29:21.318Z,38
2022-12-11T13:30:21.299Z,40
2022-12-11T13:31:21.332Z,33
2022-12-11T13:32:21.376Z,35
2022-12-11T13:33:21.321Z,37
2022-12-11T13:34:21.296Z,35
2022-12-11T13:35:21.308Z,35
2022-12-11T13:36:24.560Z,37
2022-12-11T13:37:21.298Z,36
2022-12-11T13:38:21.310Z,37
2022-12-11T13:39:21.342Z,35
2022-12-11T13:40:21.361Z,32
2022-12-11T13:41:21.290Z,36
2022-12-11T13:42:21.301Z,39
2022-12-11T13:43:21.304Z,87
2022-12-11T13:44:21.301Z,35
2022-12-11T13:45:21.338Z,36
2022-12-11T13:46:21.355Z,36
2022-12-11T13:47:21.345Z,40
2022-12-11T13:48:21.455Z,33
2022-12-11T13:49:21.417Z,37
2022-12-11T13:50:21.397Z,30
2022-12-11T13:51:21.331Z,34
2022-12-11T13:52:21.336Z,33
2022-12-11T13:53:21.358Z,29
2022-12-11T13:54:21.287Z,31
2022-12-11T13:55:21.340Z,31
2022-12-11T13:56:21.351Z,36
2022-12-11T13:57:21.304Z,28
2022-12-11T13:58:21.332Z,32
2022-12-11T13:59:21.312Z,31
2022-12-11T14:00:21.285Z,34
2022-12-11T14:01:21.416Z,36
2022-12-11T14:02:21.356Z,33
2022-12-11T14:03:21.358Z,34
2022-12-11T14:04:21.350Z,34
2022-12-11T14:05:21.300Z,38
2022-12-11T14:06:21.325Z,33
2022-12-11T14:07:21.305Z,35
2022-12-11T14:08:21.413Z,35
2022-12-11T14:09:21.288Z,39
2022-12-11T14:10:21.291Z,35
2022-12-11T14:11:21.361Z,45
2022-12-11T14:12:21.309Z,42
2022-12-11T14:13:21.329Z,32
2022-12-11T14:14:21.295Z,35
2022-12-11T14:15:21.359Z,33
2022-12-11T14:16:21.393Z,36